Impacts METAR Board INFO
IDs:

KMIA - Miami Intl, FL, US

Updated at: 1501 UTC 13 Dec 2017
Potential Impact None Slight Moderate High
Time13/03Z 13/04Z 13/05Z 13/06Z 13/07Z 13/08Z 13/09Z 13/10Z 13/11Z 13/12Z 13/13Z 13/14Z 13/15Z
VIS10 10 10 10 10 10 10 10 10 10 10 10 10
CIG-- -- -- -- -- -- -- -- -- -- -- -- --
CoverCLRFEWSCTFEWSCTCLRCLRCLRCLRCLRCLRCLRCLR
FltCatVFRVFRVFRVFRVFRVFRVFRVFRVFRVFRVFRVFRVFR
WX--------------------------
WDir220220220260320320320320330340340340330
WSpd4 4 3 3 6 7 6 6 5 4 5 8 8
WGst-- -- -- -- 15 -- -- -- -- -- -- 16 --
Raw hourly METARs
KMIA 130253Z 22004KT 10SM CLR 17/14 A3000 RMK AO2 SLP159 T01670139 51006
KMIA 130353Z 22004KT 10SM FEW050 17/14 A3000 RMK AO2 SLP158 T01670139
KMIA 130453Z 22003KT 10SM SCT035 SCT050 SCT060 17/14 A2999 RMK AO2 SLP155 T01670144 402330089
KMIA 130553Z 26003KT 10SM FEW035 FEW050 17/14 A2998 RMK AO2 SLP152 T01670144 10200 20161 58007
KMIA 130653Z 32006G15KT 10SM FEW060 SCT150 17/12 A2999 RMK AO2 SLP156 T01720117
KMIA 130753Z 32007KT 280V350 10SM CLR 16/11 A3000 RMK AO2 SLP158 T01610106
KMIA 130853Z 32006KT 10SM CLR 15/11 A3001 RMK AO2 SLP161 T01500106 51009
KMIA 130953Z 32006KT 10SM CLR 14/09 A3002 RMK AO2 SLP167 T01440089
KMIA 131053Z 33005KT 10SM CLR 14/07 A3006 RMK AO2 SLP177 T01390072
KMIA 131153Z 34004KT 10SM CLR 13/07 A3009 RMK AO2 SLP188 T01280067 10178 20128 53026
KMIA 131253Z 34005KT 10SM CLR 13/06 A3012 RMK AO2 SLP198 T01330061
KMIA 131353Z 34008G16KT 10SM CLR 14/05 A3014 RMK AO2 SLP205 T01390050
KMIA 131453Z 33008KT 10SM CLR 15/04 A3014 RMK AO2 SLP207 T01500044 51019